sensor_id;sensor_type;location;lat;lon;timestamp;P1;durP1;ratioP1;P2;durP2;ratioP2
47523;SDS011;33253;42.144;25.884;2023-04-03T00:01:02;11.52;;;3.70;;
47523;SDS011;33253;42.144;25.884;2023-04-03T00:03:27;10.15;;;4.38;;
47523;SDS011;33253;42.144;25.884;2023-04-03T00:05:53;12.25;;;3.67;;
47523;SDS011;33253;42.144;25.884;2023-04-03T00:08:19;9.55;;;3.97;;
47523;SDS011;33253;42.144;25.884;2023-04-03T00:10:44;7.72;;;4.05;;
47523;SDS011;33253;42.144;25.884;2023-04-03T00:13:10;7.97;;;3.63;;
47523;SDS011;33253;42.144;25.884;2023-04-03T00:15:36;10.02;;;4.22;;
47523;SDS011;33253;42.144;25.884;2023-04-03T00:18:02;18.60;;;4.47;;
47523;SDS011;33253;42.144;25.884;2023-04-03T00:20:28;17.45;;;4.72;;
47523;SDS011;33253;42.144;25.884;2023-04-03T00:22:54;12.10;;;3.97;;
47523;SDS011;33253;42.144;25.884;2023-04-03T00:25:20;10.65;;;4.18;;
47523;SDS011;33253;42.144;25.884;2023-04-03T00:27:46;16.35;;;5.15;;
47523;SDS011;33253;42.144;25.884;2023-04-03T00:30:12;10.20;;;4.13;;
47523;SDS011;33253;42.144;25.884;2023-04-03T00:32:40;10.65;;;4.03;;
47523;SDS011;33253;42.144;25.884;2023-04-03T00:35:06;7.53;;;3.78;;
47523;SDS011;33253;42.144;25.884;2023-04-03T00:37:31;13.32;;;4.00;;
47523;SDS011;33253;42.144;25.884;2023-04-03T00:39:57;10.25;;;3.65;;
47523;SDS011;33253;42.144;25.884;2023-04-03T00:42:23;13.43;;;4.20;;
47523;SDS011;33253;42.144;25.884;2023-04-03T00:47:16;7.57;;;3.78;;
47523;SDS011;33253;42.144;25.884;2023-04-03T00:49:43;13.68;;;4.45;;
47523;SDS011;33253;42.144;25.884;2023-04-03T00:52:14;13.32;;;4.32;;
47523;SDS011;33253;42.144;25.884;2023-04-03T00:54:42;9.40;;;4.15;;
47523;SDS011;33253;42.144;25.884;2023-04-03T00:57:11;17.27;;;4.88;;
47523;SDS011;33253;42.144;25.884;2023-04-03T00:59:42;15.05;;;4.38;;
47523;SDS011;33253;42.144;25.884;2023-04-03T01:02:10;10.93;;;4.38;;
47523;SDS011;33253;42.144;25.884;2023-04-03T01:04:37;11.73;;;4.05;;
47523;SDS011;33253;42.144;25.884;2023-04-03T01:07:08;14.35;;;4.97;;
47523;SDS011;33253;42.144;25.884;2023-04-03T01:09:35;13.35;;;4.10;;
47523;SDS011;33253;42.144;25.884;2023-04-03T01:14:49;12.45;;;4.25;;
47523;SDS011;33253;42.144;25.884;2023-04-03T01:25:55;8.88;;;3.60;;
47523;SDS011;33253;42.144;25.884;2023-04-03T01:30:50;7.90;;;3.60;;
47523;SDS011;33253;42.144;25.884;2023-04-03T01:33:35;7.10;;;3.85;;
47523;SDS011;33253;42.144;25.884;2023-04-03T01:36:03;9.15;;;3.60;;
47523;SDS011;33253;42.144;25.884;2023-04-03T01:38:29;13.68;;;4.03;;
47523;SDS011;33253;42.144;25.884;2023-04-03T01:40:55;8.60;;;3.67;;
47523;SDS011;33253;42.144;25.884;2023-04-03T01:43:21;12.55;;;3.83;;
47523;SDS011;33253;42.144;25.884;2023-04-03T01:45:46;10.73;;;3.80;;
47523;SDS011;33253;42.144;25.884;2023-04-03T01:48:14;6.30;;;3.45;;
47523;SDS011;33253;42.144;25.884;2023-04-03T01:50:40;7.93;;;3.75;;
47523;SDS011;33253;42.144;25.884;2023-04-03T01:53:06;13.25;;;4.97;;
47523;SDS011;33253;42.144;25.884;2023-04-03T01:55:31;12.98;;;4.25;;
47523;SDS011;33253;42.144;25.884;2023-04-03T01:57:56;10.27;;;4.50;;
47523;SDS011;33253;42.144;25.884;2023-04-03T02:00:22;9.25;;;3.30;;
47523;SDS011;33253;42.144;25.884;2023-04-03T02:02:47;5.47;;;3.35;;
47523;SDS011;33253;42.144;25.884;2023-04-03T02:05:13;7.35;;;3.60;;
47523;SDS011;33253;42.144;25.884;2023-04-03T02:07:38;7.07;;;3.08;;
47523;SDS011;33253;42.144;25.884;2023-04-03T02:10:04;8.32;;;3.70;;
47523;SDS011;33253;42.144;25.884;2023-04-03T02:12:30;7.10;;;2.95;;
47523;SDS011;33253;42.144;25.884;2023-04-03T02:14:55;8.95;;;3.35;;
47523;SDS011;33253;42.144;25.884;2023-04-03T02:17:22;9.45;;;3.88;;
47523;SDS011;33253;42.144;25.884;2023-04-03T02:19:48;17.10;;;4.00;;
47523;SDS011;33253;42.144;25.884;2023-04-03T02:22:13;10.18;;;3.78;;
47523;SDS011;33253;42.144;25.884;2023-04-03T02:24:39;11.55;;;3.80;;
47523;SDS011;33253;42.144;25.884;2023-04-03T02:27:05;14.13;;;4.00;;
47523;SDS011;33253;42.144;25.884;2023-04-03T02:29:30;10.32;;;4.20;;
47523;SDS011;33253;42.144;25.884;2023-04-03T02:31:56;9.55;;;3.85;;
47523;SDS011;33253;42.144;25.884;2023-04-03T02:34:21;9.85;;;3.92;;
47523;SDS011;33253;42.144;25.884;2023-04-03T02:36:47;12.25;;;4.00;;
47523;SDS011;33253;42.144;25.884;2023-04-03T02:39:12;11.75;;;4.43;;
47523;SDS011;33253;42.144;25.884;2023-04-03T02:41:38;13.98;;;3.90;;
47523;SDS011;33253;42.144;25.884;2023-04-03T02:44:04;8.23;;;3.63;;
47523;SDS011;33253;42.144;25.884;2023-04-03T02:46:31;10.40;;;3.67;;
47523;SDS011;33253;42.144;25.884;2023-04-03T02:48:57;10.27;;;3.92;;
47523;SDS011;33253;42.144;25.884;2023-04-03T02:51:23;11.38;;;4.13;;
47523;SDS011;33253;42.144;25.884;2023-04-03T02:53:49;10.57;;;3.58;;
47523;SDS011;33253;42.144;25.884;2023-04-03T02:56:15;13.75;;;4.57;;
47523;SDS011;33253;42.144;25.884;2023-04-03T02:58:42;10.60;;;4.00;;
47523;SDS011;33253;42.144;25.884;2023-04-03T03:01:07;12.65;;;4.30;;
47523;SDS011;33253;42.144;25.884;2023-04-03T03:03:33;14.40;;;5.68;;
47523;SDS011;33253;42.144;25.884;2023-04-03T03:06:05;7.78;;;4.25;;
47523;SDS011;33253;42.144;25.884;2023-04-03T03:08:35;8.50;;;4.03;;
47523;SDS011;33253;42.144;25.884;2023-04-03T03:11:01;12.23;;;3.78;;
47523;SDS011;33253;42.144;25.884;2023-04-03T03:13:28;7.57;;;3.50;;
47523;SDS011;33253;42.144;25.884;2023-04-03T03:15:54;8.20;;;4.05;;
47523;SDS011;33253;42.144;25.884;2023-04-03T03:18:19;9.70;;;3.85;;
47523;SDS011;33253;42.144;25.884;2023-04-03T03:20:45;9.63;;;4.20;;
47523;SDS011;33253;42.144;25.884;2023-04-03T03:23:11;9.68;;;3.40;;
47523;SDS011;33253;42.144;25.884;2023-04-03T03:25:39;7.57;;;3.45;;
47523;SDS011;33253;42.144;25.884;2023-04-03T03:28:05;18.98;;;4.00;;
47523;SDS011;33253;42.144;25.884;2023-04-03T03:30:31;10.23;;;3.65;;
47523;SDS011;33253;42.144;25.884;2023-04-03T03:32:57;9.73;;;3.80;;
47523;SDS011;33253;42.144;25.884;2023-04-03T03:35:22;7.72;;;3.78;;
47523;SDS011;33253;42.144;25.884;2023-04-03T03:37:48;10.23;;;3.78;;
47523;SDS011;33253;42.144;25.884;2023-04-03T03:40:14;8.00;;;3.83;;
47523;SDS011;33253;42.144;25.884;2023-04-03T03:42:40;18.35;;;5.10;;
47523;SDS011;33253;42.144;25.884;2023-04-03T03:45:07;9.43;;;4.50;;
47523;SDS011;33253;42.144;25.884;2023-04-03T03:47:33;8.93;;;4.25;;
47523;SDS011;33253;42.144;25.884;2023-04-03T03:49:58;10.98;;;4.03;;
47523;SDS011;33253;42.144;25.884;2023-04-03T03:52:24;14.00;;;4.13;;
47523;SDS011;33253;42.144;25.884;2023-04-03T03:54:49;10.63;;;3.60;;
47523;SDS011;33253;42.144;25.884;2023-04-03T03:57:15;10.50;;;3.80;;
47523;SDS011;33253;42.144;25.884;2023-04-03T03:59:41;10.85;;;4.40;;
47523;SDS011;33253;42.144;25.884;2023-04-03T04:02:07;9.00;;;3.58;;
47523;SDS011;33253;42.144;25.884;2023-04-03T04:04:32;11.75;;;4.50;;
47523;SDS011;33253;42.144;25.884;2023-04-03T04:06:58;9.85;;;4.30;;
47523;SDS011;33253;42.144;25.884;2023-04-03T04:09:25;8.88;;;4.10;;
47523;SDS011;33253;42.144;25.884;2023-04-03T04:11:51;8.95;;;3.90;;
47523;SDS011;33253;42.144;25.884;2023-04-03T04:14:16;10.25;;;3.80;;
47523;SDS011;33253;42.144;25.884;2023-04-03T04:16:41;9.70;;;3.90;;
47523;SDS011;33253;42.144;25.884;2023-04-03T04:19:07;8.85;;;3.90;;
47523;SDS011;33253;42.144;25.884;2023-04-03T04:21:32;12.32;;;4.22;;
47523;SDS011;33253;42.144;25.884;2023-04-03T04:23:58;10.25;;;3.80;;
47523;SDS011;33253;42.144;25.884;2023-04-03T04:26:23;8.50;;;4.35;;
47523;SDS011;33253;42.144;25.884;2023-04-03T04:28:49;13.00;;;4.22;;
47523;SDS011;33253;42.144;25.884;2023-04-03T04:31:14;11.27;;;4.90;;
47523;SDS011;33253;42.144;25.884;2023-04-03T04:33:40;10.20;;;4.90;;
47523;SDS011;33253;42.144;25.884;2023-04-03T04:36:05;12.32;;;4.47;;
47523;SDS011;33253;42.144;25.884;2023-04-03T04:38:31;13.40;;;5.07;;
47523;SDS011;33253;42.144;25.884;2023-04-03T04:40:56;8.65;;;4.40;;
47523;SDS011;33253;42.144;25.884;2023-04-03T04:43:22;11.25;;;4.75;;
47523;SDS011;33253;42.144;25.884;2023-04-03T04:45:47;9.38;;;4.50;;
47523;SDS011;33253;42.144;25.884;2023-04-03T04:48:13;15.23;;;5.43;;
47523;SDS011;33253;42.144;25.884;2023-04-03T04:50:38;13.63;;;5.28;;
47523;SDS011;33253;42.144;25.884;2023-04-03T04:53:04;17.23;;;5.32;;
47523;SDS011;33253;42.144;25.884;2023-04-03T04:55:30;10.57;;;4.45;;
47523;SDS011;33253;42.144;25.884;2023-04-03T04:57:55;13.25;;;5.50;;
47523;SDS011;33253;42.144;25.884;2023-04-03T05:00:20;12.05;;;5.00;;
47523;SDS011;33253;42.144;25.884;2023-04-03T05:02:46;12.82;;;5.40;;
47523;SDS011;33253;42.144;25.884;2023-04-03T05:05:12;17.45;;;7.03;;
47523;SDS011;33253;42.144;25.884;2023-04-03T05:07:37;18.13;;;8.18;;
47523;SDS011;33253;42.144;25.884;2023-04-03T05:10:03;15.00;;;5.43;;
47523;SDS011;33253;42.144;25.884;2023-04-03T05:12:28;14.48;;;5.70;;
47523;SDS011;33253;42.144;25.884;2023-04-03T05:14:54;13.65;;;5.40;;
47523;SDS011;33253;42.144;25.884;2023-04-03T05:17:20;10.02;;;5.60;;
47523;SDS011;33253;42.144;25.884;2023-04-03T05:19:45;12.70;;;4.82;;
47523;SDS011;33253;42.144;25.884;2023-04-03T05:22:11;11.32;;;5.10;;
47523;SDS011;33253;42.144;25.884;2023-04-03T05:24:37;14.35;;;5.57;;
47523;SDS011;33253;42.144;25.884;2023-04-03T05:27:02;12.88;;;5.30;;
47523;SDS011;33253;42.144;25.884;2023-04-03T05:29:28;12.43;;;5.15;;
47523;SDS011;33253;42.144;25.884;2023-04-03T05:31:54;10.73;;;5.22;;
47523;SDS011;33253;42.144;25.884;2023-04-03T05:34:20;13.13;;;6.32;;
47523;SDS011;33253;42.144;25.884;2023-04-03T05:36:45;12.20;;;4.65;;
47523;SDS011;33253;42.144;25.884;2023-04-03T05:39:11;14.15;;;4.95;;
47523;SDS011;33253;42.144;25.884;2023-04-03T05:41:36;10.73;;;5.05;;
47523;SDS011;33253;42.144;25.884;2023-04-03T05:44:02;12.35;;;4.45;;
47523;SDS011;33253;42.144;25.884;2023-04-03T05:46:27;9.52;;;4.90;;
47523;SDS011;33253;42.144;25.884;2023-04-03T05:48:53;11.40;;;5.15;;
47523;SDS011;33253;42.144;25.884;2023-04-03T05:51:22;13.40;;;5.63;;
47523;SDS011;33253;42.144;25.884;2023-04-03T05:53:52;16.40;;;7.22;;
47523;SDS011;33253;42.144;25.884;2023-04-03T05:56:24;8.57;;;4.82;;
47523;SDS011;33253;42.144;25.884;2023-04-03T05:58:50;9.38;;;4.93;;
47523;SDS011;33253;42.144;25.884;2023-04-03T06:01:15;8.95;;;4.72;;
47523;SDS011;33253;42.144;25.884;2023-04-03T06:03:41;12.90;;;5.38;;
47523;SDS011;33253;42.144;25.884;2023-04-03T06:06:06;8.82;;;4.88;;
47523;SDS011;33253;42.144;25.884;2023-04-03T06:08:32;8.40;;;5.05;;
47523;SDS011;33253;42.144;25.884;2023-04-03T06:10:59;9.68;;;4.72;;
47523;SDS011;33253;42.144;25.884;2023-04-03T06:13:24;10.05;;;5.22;;
47523;SDS011;33253;42.144;25.884;2023-04-03T06:15:50;11.88;;;5.65;;
47523;SDS011;33253;42.144;25.884;2023-04-03T06:18:15;8.63;;;5.22;;
47523;SDS011;33253;42.144;25.884;2023-04-03T06:20:41;9.05;;;4.80;;
47523;SDS011;33253;42.144;25.884;2023-04-03T06:23:06;7.40;;;5.32;;
47523;SDS011;33253;42.144;25.884;2023-04-03T06:25:32;8.82;;;5.38;;
47523;SDS011;33253;42.144;25.884;2023-04-03T06:27:58;7.85;;;5.35;;
47523;SDS011;33253;42.144;25.884;2023-04-03T06:30:24;11.90;;;5.53;;
47523;SDS011;33253;42.144;25.884;2023-04-03T06:32:49;9.15;;;5.03;;
47523;SDS011;33253;42.144;25.884;2023-04-03T06:35:15;10.77;;;5.13;;
47523;SDS011;33253;42.144;25.884;2023-04-03T06:37:40;10.40;;;5.82;;
47523;SDS011;33253;42.144;25.884;2023-04-03T06:40:06;9.38;;;5.25;;
47523;SDS011;33253;42.144;25.884;2023-04-03T06:42:32;11.02;;;4.72;;
47523;SDS011;33253;42.144;25.884;2023-04-03T06:44:57;10.73;;;6.00;;
47523;SDS011;33253;42.144;25.884;2023-04-03T06:47:23;9.40;;;5.20;;
47523;SDS011;33253;42.144;25.884;2023-04-03T06:49:48;12.15;;;5.40;;
47523;SDS011;33253;42.144;25.884;2023-04-03T06:52:14;9.73;;;5.50;;
47523;SDS011;33253;42.144;25.884;2023-04-03T06:54:39;10.13;;;5.60;;
47523;SDS011;33253;42.144;25.884;2023-04-03T06:57:05;11.13;;;5.57;;
47523;SDS011;33253;42.144;25.884;2023-04-03T06:59:31;12.50;;;5.95;;
47523;SDS011;33253;42.144;25.884;2023-04-03T07:01:57;12.55;;;6.90;;
47523;SDS011;33253;42.144;25.884;2023-04-03T07:04:24;13.60;;;7.05;;
47523;SDS011;33253;42.144;25.884;2023-04-03T07:06:50;11.90;;;6.90;;
47523;SDS011;33253;42.144;25.884;2023-04-03T07:09:15;11.38;;;5.93;;
47523;SDS011;33253;42.144;25.884;2023-04-03T07:11:41;9.30;;;5.32;;
47523;SDS011;33253;42.144;25.884;2023-04-03T07:14:06;7.10;;;4.68;;
47523;SDS011;33253;42.144;25.884;2023-04-03T07:16:33;15.93;;;5.00;;
47523;SDS011;33253;42.144;25.884;2023-04-03T07:18:59;10.45;;;5.25;;
47523;SDS011;33253;42.144;25.884;2023-04-03T07:21:25;25.60;;;6.00;;
47523;SDS011;33253;42.144;25.884;2023-04-03T07:23:51;17.77;;;5.70;;
47523;SDS011;33253;42.144;25.884;2023-04-03T07:26:16;21.45;;;6.47;;
47523;SDS011;33253;42.144;25.884;2023-04-03T07:28:42;10.18;;;5.43;;
47523;SDS011;33253;42.144;25.884;2023-04-03T07:31:11;12.93;;;5.47;;
47523;SDS011;33253;42.144;25.884;2023-04-03T07:33:41;9.57;;;5.07;;
47523;SDS011;33253;42.144;25.884;2023-04-03T07:36:09;12.50;;;5.18;;
47523;SDS011;33253;42.144;25.884;2023-04-03T07:38:38;10.55;;;5.05;;
47523;SDS011;33253;42.144;25.884;2023-04-03T07:41:03;14.15;;;5.10;;
47523;SDS011;33253;42.144;25.884;2023-04-03T07:43:29;19.10;;;5.38;;
47523;SDS011;33253;42.144;25.884;2023-04-03T07:45:55;16.25;;;5.78;;
47523;SDS011;33253;42.144;25.884;2023-04-03T07:48:21;21.33;;;6.22;;
47523;SDS011;33253;42.144;25.884;2023-04-03T07:50:48;17.38;;;6.10;;
47523;SDS011;33253;42.144;25.884;2023-04-03T07:53:14;16.95;;;5.80;;
47523;SDS011;33253;42.144;25.884;2023-04-03T07:55:40;25.58;;;6.80;;
47523;SDS011;33253;42.144;25.884;2023-04-03T07:58:12;25.33;;;6.43;;
47523;SDS011;33253;42.144;25.884;2023-04-03T08:00:40;32.45;;;7.53;;
47523;SDS011;33253;42.144;25.884;2023-04-03T08:03:09;24.10;;;7.13;;
47523;SDS011;33253;42.144;25.884;2023-04-03T08:05:45;36.88;;;8.15;;
47523;SDS011;33253;42.144;25.884;2023-04-03T08:08:14;26.67;;;7.45;;
47523;SDS011;33253;42.144;25.884;2023-04-03T08:10:43;27.25;;;9.32;;
47523;SDS011;33253;42.144;25.884;2023-04-03T08:13:13;24.23;;;8.48;;
47523;SDS011;33253;42.144;25.884;2023-04-03T08:15:39;16.77;;;7.38;;
47523;SDS011;33253;42.144;25.884;2023-04-03T08:18:05;23.67;;;9.07;;
47523;SDS011;33253;42.144;25.884;2023-04-03T08:20:30;30.17;;;8.93;;
47523;SDS011;33253;42.144;25.884;2023-04-03T08:22:56;27.92;;;9.52;;
47523;SDS011;33253;42.144;25.884;2023-04-03T08:25:21;24.20;;;8.85;;
47523;SDS011;33253;42.144;25.884;2023-04-03T08:27:47;25.00;;;8.43;;
47523;SDS011;33253;42.144;25.884;2023-04-03T08:30:12;20.65;;;7.88;;
47523;SDS011;33253;42.144;25.884;2023-04-03T08:32:38;20.23;;;7.38;;
47523;SDS011;33253;42.144;25.884;2023-04-03T08:35:06;14.27;;;6.65;;
47523;SDS011;33253;42.144;25.884;2023-04-03T08:37:34;21.60;;;6.93;;
47523;SDS011;33253;42.144;25.884;2023-04-03T08:40:01;27.80;;;6.70;;
47523;SDS011;33253;42.144;25.884;2023-04-03T08:45:06;19.05;;;6.22;;
47523;SDS011;33253;42.144;25.884;2023-04-03T08:50:43;16.30;;;6.43;;
47523;SDS011;33253;42.144;25.884;2023-04-03T08:53:15;14.15;;;5.72;;
47523;SDS011;33253;42.144;25.884;2023-04-03T08:55:44;14.23;;;5.88;;
47523;SDS011;33253;42.144;25.884;2023-04-03T08:58:21;9.50;;;5.53;;
47523;SDS011;33253;42.144;25.884;2023-04-03T09:01:05;9.50;;;5.40;;
47523;SDS011;33253;42.144;25.884;2023-04-03T09:03:40;13.38;;;6.82;;
47523;SDS011;33253;42.144;25.884;2023-04-03T09:06:16;8.27;;;5.22;;
47523;SDS011;33253;42.144;25.884;2023-04-03T09:19:39;15.95;;;8.90;;
47523;SDS011;33253;42.144;25.884;2023-04-03T09:22:18;11.30;;;7.38;;
47523;SDS011;33253;42.144;25.884;2023-04-03T09:24:49;22.00;;;14.15;;
47523;SDS011;33253;42.144;25.884;2023-04-03T09:27:22;12.30;;;7.25;;
47523;SDS011;33253;42.144;25.884;2023-04-03T09:29:48;18.00;;;10.57;;
47523;SDS011;33253;42.144;25.884;2023-04-03T09:32:21;11.52;;;7.43;;
47523;SDS011;33253;42.144;25.884;2023-04-03T09:34:55;12.07;;;6.93;;
47523;SDS011;33253;42.144;25.884;2023-04-03T09:40:04;10.07;;;5.75;;
47523;SDS011;33253;42.144;25.884;2023-04-03T09:42:31;11.73;;;5.97;;
47523;SDS011;33253;42.144;25.884;2023-04-03T09:45:01;9.25;;;4.75;;
47523;SDS011;33253;42.144;25.884;2023-04-03T09:47:30;6.88;;;4.82;;
47523;SDS011;33253;42.144;25.884;2023-04-03T09:52:39;9.48;;;4.90;;
47523;SDS011;33253;42.144;25.884;2023-04-03T09:58:22;10.35;;;4.38;;
47523;SDS011;33253;42.144;25.884;2023-04-03T10:01:00;12.80;;;5.18;;
47523;SDS011;33253;42.144;25.884;2023-04-03T10:03:33;9.50;;;5.13;;
47523;SDS011;33253;42.144;25.884;2023-04-03T10:06:01;11.32;;;4.70;;
47523;SDS011;33253;42.144;25.884;2023-04-03T10:08:32;11.43;;;5.05;;
47523;SDS011;33253;42.144;25.884;2023-04-03T10:13:35;10.20;;;5.75;;
47523;SDS011;33253;42.144;25.884;2023-04-03T10:16:15;12.63;;;5.47;;
47523;SDS011;33253;42.144;25.884;2023-04-03T10:36:39;10.63;;;6.43;;
47523;SDS011;33253;42.144;25.884;2023-04-03T10:42:12;12.32;;;7.38;;
47523;SDS011;33253;42.144;25.884;2023-04-03T10:44:55;14.73;;;7.95;;
47523;SDS011;33253;42.144;25.884;2023-04-03T10:58:00;15.00;;;9.65;;
47523;SDS011;33253;42.144;25.884;2023-04-03T11:00:42;23.30;;;12.63;;
47523;SDS011;33253;42.144;25.884;2023-04-03T11:06:11;14.95;;;9.60;;
47523;SDS011;33253;42.144;25.884;2023-04-03T11:08:46;15.00;;;8.68;;
47523;SDS011;33253;42.144;25.884;2023-04-03T11:11:22;13.70;;;8.18;;
47523;SDS011;33253;42.144;25.884;2023-04-03T11:16:40;12.18;;;7.32;;
47523;SDS011;33253;42.144;25.884;2023-04-03T11:19:20;14.80;;;6.53;;
47523;SDS011;33253;42.144;25.884;2023-04-03T11:22:00;13.20;;;6.22;;
47523;SDS011;33253;42.144;25.884;2023-04-03T11:24:31;10.55;;;6.07;;
47523;SDS011;33253;42.144;25.884;2023-04-03T11:27:00;7.18;;;3.47;;
47523;SDS011;33253;42.144;25.884;2023-04-03T11:29:33;8.48;;;4.00;;
47523;SDS011;33253;42.144;25.884;2023-04-03T11:32:11;8.32;;;4.07;;
47523;SDS011;33253;42.144;25.884;2023-04-03T11:35:03;8.55;;;3.63;;
47523;SDS011;33253;42.144;25.884;2023-04-03T11:37:36;9.25;;;4.22;;
47523;SDS011;33253;42.144;25.884;2023-04-03T11:42:51;8.90;;;4.70;;
47523;SDS011;33253;42.144;25.884;2023-04-03T11:47:49;13.10;;;5.47;;
47523;SDS011;33253;42.144;25.884;2023-04-03T11:53:01;9.38;;;5.45;;
47523;SDS011;33253;42.144;25.884;2023-04-03T12:05:51;11.75;;;6.15;;
47523;SDS011;33253;42.144;25.884;2023-04-03T12:08:38;11.43;;;5.68;;
47523;SDS011;33253;42.144;25.884;2023-04-03T12:19:38;11.65;;;5.53;;
47523;SDS011;33253;42.144;25.884;2023-04-03T12:22:13;15.68;;;6.05;;
47523;SDS011;33253;42.144;25.884;2023-04-03T12:24:47;11.57;;;6.95;;
47523;SDS011;33253;42.144;25.884;2023-04-03T12:27:25;11.75;;;5.97;;
47523;SDS011;33253;42.144;25.884;2023-04-03T12:30:04;14.02;;;5.68;;
47523;SDS011;33253;42.144;25.884;2023-04-03T12:35:17;13.73;;;6.28;;
47523;SDS011;33253;42.144;25.884;2023-04-03T12:43:48;13.80;;;6.47;;
47523;SDS011;33253;42.144;25.884;2023-04-03T12:46:26;18.63;;;6.80;;
47523;SDS011;33253;42.144;25.884;2023-04-03T12:48:59;17.35;;;6.00;;
47523;SDS011;33253;42.144;25.884;2023-04-03T12:51:38;16.75;;;5.53;;
47523;SDS011;33253;42.144;25.884;2023-04-03T12:56:49;14.10;;;5.90;;
47523;SDS011;33253;42.144;25.884;2023-04-03T13:01:55;24.15;;;7.82;;
47523;SDS011;33253;42.144;25.884;2023-04-03T13:06:55;31.58;;;9.20;;
47523;SDS011;33253;42.144;25.884;2023-04-03T13:09:22;17.30;;;8.45;;
47523;SDS011;33253;42.144;25.884;2023-04-03T13:14:57;18.05;;;7.60;;
47523;SDS011;33253;42.144;25.884;2023-04-03T13:17:24;24.45;;;8.73;;
47523;SDS011;33253;42.144;25.884;2023-04-03T13:19:51;20.77;;;7.35;;
47523;SDS011;33253;42.144;25.884;2023-04-03T13:24:45;18.58;;;7.03;;
47523;SDS011;33253;42.144;25.884;2023-04-03T13:29:40;25.65;;;8.38;;
47523;SDS011;33253;42.144;25.884;2023-04-03T13:32:06;17.98;;;7.22;;
47523;SDS011;33253;42.144;25.884;2023-04-03T13:34:41;35.60;;;9.60;;
47523;SDS011;33253;42.144;25.884;2023-04-03T13:37:19;17.58;;;6.65;;
47523;SDS011;33253;42.144;25.884;2023-04-03T13:40:01;26.88;;;8.00;;
47523;SDS011;33253;42.144;25.884;2023-04-03T13:42:37;35.10;;;10.10;;
47523;SDS011;33253;42.144;25.884;2023-04-03T13:47:53;24.83;;;6.80;;
47523;SDS011;33253;42.144;25.884;2023-04-03T13:50:33;21.48;;;6.85;;
47523;SDS011;33253;42.144;25.884;2023-04-03T13:53:21;19.05;;;6.00;;
47523;SDS011;33253;42.144;25.884;2023-04-03T13:55:58;30.80;;;8.05;;
47523;SDS011;33253;42.144;25.884;2023-04-03T13:58:35;35.00;;;9.05;;
47523;SDS011;33253;42.144;25.884;2023-04-03T14:05:59;40.13;;;12.80;;
47523;SDS011;33253;42.144;25.884;2023-04-03T14:08:26;49.35;;;13.07;;
47523;SDS011;33253;42.144;25.884;2023-04-03T14:10:52;34.17;;;9.68;;
47523;SDS011;33253;42.144;25.884;2023-04-03T14:13:18;29.38;;;8.88;;
47523;SDS011;33253;42.144;25.884;2023-04-03T14:15:45;27.15;;;8.23;;
47523;SDS011;33253;42.144;25.884;2023-04-03T14:18:14;23.10;;;7.60;;
47523;SDS011;33253;42.144;25.884;2023-04-03T14:20:42;22.27;;;5.97;;
47523;SDS011;33253;42.144;25.884;2023-04-03T14:23:08;18.95;;;5.75;;
47523;SDS011;33253;42.144;25.884;2023-04-03T14:25:34;28.70;;;7.63;;
47523;SDS011;33253;42.144;25.884;2023-04-03T14:28:00;13.90;;;5.25;;
47523;SDS011;33253;42.144;25.884;2023-04-03T14:32:59;30.00;;;7.13;;
47523;SDS011;33253;42.144;25.884;2023-04-03T14:35:26;13.75;;;6.00;;
47523;SDS011;33253;42.144;25.884;2023-04-03T14:37:52;30.50;;;8.30;;
47523;SDS011;33253;42.144;25.884;2023-04-03T14:40:20;22.33;;;7.57;;
47523;SDS011;33253;42.144;25.884;2023-04-03T14:42:49;15.27;;;6.93;;
47523;SDS011;33253;42.144;25.884;2023-04-03T14:45:16;21.38;;;8.80;;
47523;SDS011;33253;42.144;25.884;2023-04-03T14:47:53;12.60;;;7.28;;
47523;SDS011;33253;42.144;25.884;2023-04-03T14:50:23;13.63;;;7.30;;
47523;SDS011;33253;42.144;25.884;2023-04-03T14:52:51;14.07;;;6.70;;
47523;SDS011;33253;42.144;25.884;2023-04-03T14:55:20;11.38;;;5.65;;
47523;SDS011;33253;42.144;25.884;2023-04-03T14:57:47;13.63;;;6.47;;
47523;SDS011;33253;42.144;25.884;2023-04-03T15:00:17;15.25;;;7.30;;
47523;SDS011;33253;42.144;25.884;2023-04-03T15:02:44;15.75;;;8.35;;
47523;SDS011;33253;42.144;25.884;2023-04-03T15:05:10;16.70;;;9.45;;
47523;SDS011;33253;42.144;25.884;2023-04-03T15:07:47;15.98;;;7.95;;
47523;SDS011;33253;42.144;25.884;2023-04-03T15:10:17;10.60;;;6.15;;
47523;SDS011;33253;42.144;25.884;2023-04-03T15:12:45;9.60;;;5.10;;
47523;SDS011;33253;42.144;25.884;2023-04-03T15:15:11;15.85;;;5.80;;
47523;SDS011;33253;42.144;25.884;2023-04-03T15:17:38;30.83;;;7.93;;
47523;SDS011;33253;42.144;25.884;2023-04-03T15:20:24;44.92;;;8.23;;
47523;SDS011;33253;42.144;25.884;2023-04-03T15:22:51;41.03;;;9.32;;
47523;SDS011;33253;42.144;25.884;2023-04-03T15:25:18;49.75;;;10.00;;
47523;SDS011;33253;42.144;25.884;2023-04-03T15:27:44;43.10;;;9.15;;
47523;SDS011;33253;42.144;25.884;2023-04-03T15:30:14;44.13;;;7.60;;
47523;SDS011;33253;42.144;25.884;2023-04-03T15:32:43;28.50;;;6.25;;
47523;SDS011;33253;42.144;25.884;2023-04-03T15:35:09;33.35;;;7.55;;
47523;SDS011;33253;42.144;25.884;2023-04-03T15:37:35;48.83;;;9.23;;
47523;SDS011;33253;42.144;25.884;2023-04-03T15:40:02;36.67;;;7.82;;
47523;SDS011;33253;42.144;25.884;2023-04-03T15:42:29;34.20;;;7.47;;
47523;SDS011;33253;42.144;25.884;2023-04-03T15:44:56;25.15;;;6.43;;
47523;SDS011;33253;42.144;25.884;2023-04-03T15:47:21;30.40;;;6.57;;
47523;SDS011;33253;42.144;25.884;2023-04-03T15:49:47;19.13;;;5.55;;
47523;SDS011;33253;42.144;25.884;2023-04-03T15:52:12;42.65;;;8.80;;
47523;SDS011;33253;42.144;25.884;2023-04-03T15:54:39;48.25;;;9.63;;
47523;SDS011;33253;42.144;25.884;2023-04-03T15:57:05;56.35;;;10.23;;
47523;SDS011;33253;42.144;25.884;2023-04-03T15:59:30;48.03;;;9.23;;
47523;SDS011;33253;42.144;25.884;2023-04-03T16:01:57;31.02;;;7.03;;
47523;SDS011;33253;42.144;25.884;2023-04-03T16:04:24;31.75;;;7.10;;
47523;SDS011;33253;42.144;25.884;2023-04-03T16:06:50;33.50;;;8.45;;
47523;SDS011;33253;42.144;25.884;2023-04-03T16:09:15;36.83;;;8.45;;
47523;SDS011;33253;42.144;25.884;2023-04-03T16:11:41;26.65;;;6.72;;
47523;SDS011;33253;42.144;25.884;2023-04-03T16:14:08;17.10;;;4.25;;
47523;SDS011;33253;42.144;25.884;2023-04-03T16:16:54;20.08;;;4.75;;
47523;SDS011;33253;42.144;25.884;2023-04-03T16:19:21;56.80;;;10.00;;
47523;SDS011;33253;42.144;25.884;2023-04-03T16:21:47;18.02;;;5.70;;
47523;SDS011;33253;42.144;25.884;2023-04-03T16:24:12;30.92;;;7.47;;
47523;SDS011;33253;42.144;25.884;2023-04-03T16:26:38;15.77;;;4.15;;
47523;SDS011;33253;42.144;25.884;2023-04-03T16:29:03;29.15;;;7.85;;
47523;SDS011;33253;42.144;25.884;2023-04-03T16:31:29;50.17;;;10.23;;
47523;SDS011;33253;42.144;25.884;2023-04-03T16:33:58;20.95;;;4.80;;
47523;SDS011;33253;42.144;25.884;2023-04-03T16:36:25;21.88;;;4.10;;
47523;SDS011;33253;42.144;25.884;2023-04-03T16:38:51;23.92;;;4.50;;
47523;SDS011;33253;42.144;25.884;2023-04-03T16:41:16;23.58;;;4.40;;
47523;SDS011;33253;42.144;25.884;2023-04-03T16:43:42;28.95;;;5.90;;
47523;SDS011;33253;42.144;25.884;2023-04-03T16:46:07;32.03;;;7.50;;
47523;SDS011;33253;42.144;25.884;2023-04-03T16:48:32;21.13;;;4.72;;
47523;SDS011;33253;42.144;25.884;2023-04-03T16:50:58;17.38;;;4.13;;